Minnekata, South Dakota
Current Conditions -  °F | °C
As of 8:53 AM on Thursday 30 Oct 2014 (Local Time) from KCUT Reporting Station
Clear Clear  
Wind Chill: 45°   Ceiling: Unl
Heat Index: 45°   Visibility: 10mi
Dew Point: 30°   Wind: 0mph
Humidity: 56%   Direction: NA
Pressure: 30.29"   Gusts: NA
Location:  43.346°N, 103.483°W
Report Text: KCUT 301453Z AUTO 00000KT 10SM CLR 07/M01 A3029 RMK AO2 SLP241 T00721011 53015
Loading
Personal Weather Stations






























Interactive Weather Map
Tropical Storm Tracking
New forecast layout! Learn more

10-Day Weather Forecast

Advertisements
Track Severe Weather on mobile